createdAt,value
2016-05-07T00:00:00.309Z,13.2
2016-05-07T00:01:00.624Z,13.18
2016-05-07T00:02:00.454Z,13.23
2016-05-07T00:03:00.629Z,13.18
2016-05-07T00:04:00.632Z,13.11
2016-05-07T00:05:00.494Z,13.05
2016-05-07T00:06:00.622Z,13.05
2016-05-07T00:07:00.468Z,13.01
2016-05-07T00:08:00.628Z,13.05
2016-05-07T00:09:00.473Z,13.05
2016-05-07T00:10:00.617Z,13.15
2016-05-07T00:11:00.635Z,13.12
2016-05-07T00:12:00.467Z,13.01
2016-05-07T00:13:00.625Z,13
2016-05-07T00:14:00.627Z,12.98
2016-05-07T00:15:00.631Z,13.01
2016-05-07T00:16:00.633Z,12.98
2016-05-07T00:17:00.479Z,13.03
2016-05-07T00:18:00.622Z,13
2016-05-07T00:19:00.641Z,13.01
2016-05-07T00:20:00.644Z,12.93
2016-05-07T00:21:00.631Z,12.95
2016-05-07T00:22:00.618Z,12.95
2016-05-07T00:23:00.636Z,12.94
2016-05-07T00:24:00.623Z,12.97
2016-05-07T00:25:00.626Z,12.87
2016-05-07T00:26:00.473Z,12.91
2016-05-07T00:27:00.944Z,12.82
2016-05-07T00:28:00.665Z,12.87
2016-05-07T00:29:00.465Z,12.91
2016-05-07T00:30:00.654Z,12.85
2016-05-07T00:31:00.643Z,12.8
2016-05-07T00:32:00.629Z,12.79
2016-05-07T00:33:00.648Z,12.8
2016-05-07T00:34:00.634Z,12.78
2016-05-07T00:35:00.497Z,12.82
2016-05-07T00:36:00.484Z,12.79
2016-05-07T00:37:00.486Z,12.78
2016-05-07T00:38:00.646Z,12.78
2016-05-07T00:39:00.633Z,12.76
2016-05-07T00:40:00.479Z,12.73
2016-05-07T00:41:00.497Z,12.76
2016-05-07T00:42:00.687Z,12.7
2016-05-07T00:43:00.627Z,12.68
2016-05-07T00:44:00.630Z,12.68
2016-05-07T00:45:00.492Z,12.75
2016-05-07T00:46:00.652Z,12.72
2016-05-07T00:47:00.654Z,12.68
2016-05-07T00:48:00.657Z,12.61
2016-05-07T00:49:00.660Z,12.67
2016-05-07T00:50:00.662Z,12.65
2016-05-07T00:51:00.649Z,12.6
2016-05-07T00:52:00.652Z,12.6
2016-05-07T00:53:00.638Z,12.61
2016-05-07T00:54:00.657Z,12.58
2016-05-07T00:55:00.504Z,12.62
2016-05-07T00:56:00.507Z,12.49
2016-05-07T00:57:00.369Z,12.5
2016-05-07T00:58:00.651Z,12.53
2016-05-07T00:59:00.655Z,12.49
2016-05-07T01:00:00.673Z,12.5
2016-05-07T01:01:00.660Z,12.53
2016-05-07T01:02:00.647Z,12.37
2016-05-07T01:03:00.509Z,12.42
2016-05-07T01:04:00.653Z,12.54
2016-05-07T01:05:00.515Z,12.42
2016-05-07T01:06:00.502Z,12.45
2016-05-07T01:07:00.645Z,12.36
2016-05-07T01:08:00.523Z,12.5
2016-05-07T01:09:00.666Z,12.46
2016-05-07T01:10:00.637Z,12.49
2016-05-07T01:11:00.547Z,12.42
2016-05-07T01:12:00.925Z,12.37
2016-05-07T01:13:00.661Z,12.37
2016-05-07T01:14:00.648Z,12.42
2016-05-07T01:15:00.683Z,12.39
2016-05-07T01:16:00.528Z,12.32
2016-05-07T01:17:00.672Z,12.32
2016-05-07T01:18:00.644Z,12.25
2016-05-07T01:19:00.661Z,12.35
2016-05-07T01:20:00.664Z,12.36
2016-05-07T01:21:00.666Z,12.37
2016-05-07T01:22:00.670Z,12.37
2016-05-07T01:23:00.641Z,12.31
2016-05-07T01:24:00.660Z,12.37
2016-05-07T01:25:00.646Z,12.31
2016-05-07T01:26:00.650Z,12.29
2016-05-07T01:27:00.495Z,12.35
2016-05-07T01:28:00.921Z,12.27
2016-05-07T01:29:00.486Z,12.31
2016-05-07T01:30:00.660Z,12.31
2016-05-07T01:31:00.678Z,12.31
2016-05-07T01:32:00.510Z,12.35
2016-05-07T01:33:00.512Z,12.15
2016-05-07T01:34:00.656Z,12.25
2016-05-07T01:35:00.659Z,12.17
2016-05-07T01:36:00.504Z,12.22
2016-05-07T01:37:00.679Z,12.2
2016-05-07T01:38:00.712Z,12.18
2016-05-07T01:39:00.512Z,12.1
2016-05-07T01:40:00.640Z,12.12
2016-05-07T01:41:00.727Z,12.07
2016-05-07T01:42:00.513Z,12.1
2016-05-07T01:43:00.677Z,12.03
2016-05-07T01:44:00.531Z,12.03
2016-05-07T01:45:00.647Z,12.04
2016-05-07T01:46:00.649Z,11.99
2016-05-07T01:47:00.652Z,12
2016-05-07T01:48:00.655Z,12.02
2016-05-07T01:49:00.657Z,12
2016-05-07T01:50:00.644Z,11.97
2016-05-07T01:51:00.695Z,11.94
2016-05-07T01:52:00.650Z,11.97
2016-05-07T01:53:00.667Z,11.91
2016-05-07T01:54:00.671Z,12.02
2016-05-07T01:55:00.642Z,11.99
2016-05-07T01:56:00.661Z,12.04
2016-05-07T01:57:01.179Z,12
2016-05-07T01:58:00.666Z,12
2016-05-07T01:59:00.669Z,11.95
2016-05-07T02:00:00.672Z,11.91
2016-05-07T02:01:00.518Z,11.88
2016-05-07T02:02:00.677Z,11.83
2016-05-07T02:03:00.664Z,11.88
2016-05-07T02:04:00.666Z,11.9
2016-05-07T02:05:00.669Z,11.91
2016-05-07T02:06:00.703Z,11.91
2016-05-07T02:07:00.691Z,11.87
2016-05-07T02:08:00.662Z,11.86
2016-05-07T02:09:00.665Z,11.83
2016-05-07T02:10:00.651Z,11.87
2016-05-07T02:11:00.904Z,11.8
2016-05-07T02:12:01.141Z,11.72
2016-05-07T02:13:00.519Z,11.81
2016-05-07T02:14:00.662Z,11.72
2016-05-07T02:15:00.665Z,11.73
2016-05-07T02:16:00.651Z,11.77
2016-05-07T02:17:00.655Z,11.81
2016-05-07T02:18:00.642Z,11.72
2016-05-07T02:19:00.660Z,11.63
2016-05-07T02:20:00.662Z,11.75
2016-05-07T02:21:00.681Z,11.65
2016-05-07T02:22:00.652Z,11.75
2016-05-07T02:23:00.671Z,11.63
2016-05-07T02:24:00.642Z,11.68
2016-05-07T02:25:00.648Z,11.7
2016-05-07T02:26:00.698Z,11.7
2016-05-07T02:27:01.122Z,11.73
2016-05-07T02:28:00.500Z,11.72
2016-05-07T02:29:00.659Z,11.65
2016-05-07T02:30:00.662Z,11.69
2016-05-07T02:31:00.664Z,11.65
2016-05-07T02:32:00.494Z,11.6
2016-05-07T02:33:00.653Z,11.6
2016-05-07T02:34:00.657Z,11.62
2016-05-07T02:35:00.644Z,11.59
2016-05-07T02:36:00.694Z,11.57
2016-05-07T02:37:00.664Z,11.62
2016-05-07T02:38:00.494Z,11.52
2016-05-07T02:39:00.639Z,11.57
2016-05-07T02:40:00.658Z,11.54
2016-05-07T02:41:00.488Z,11.48
2016-05-07T02:42:01.225Z,11.54
2016-05-07T02:43:00.680Z,11.52
2016-05-07T02:44:00.652Z,11.51
2016-05-07T02:45:00.655Z,11.55
2016-05-07T02:46:00.658Z,11.47
2016-05-07T02:47:00.660Z,11.45
2016-05-07T02:48:00.491Z,11.48
2016-05-07T02:49:00.649Z,11.4
2016-05-07T02:50:00.652Z,11.52
2016-05-07T02:51:00.655Z,11.4
2016-05-07T02:52:00.658Z,11.43
2016-05-07T02:53:00.645Z,11.4
2016-05-07T02:54:00.648Z,11.44
2016-05-07T02:55:00.666Z,11.41
2016-05-07T02:56:00.637Z,11.47
2016-05-07T02:57:01.718Z,11.41
2016-05-07T02:58:00.643Z,11.43
2016-05-07T02:59:00.645Z,11.4
2016-05-07T03:00:00.633Z,11.43
2016-05-07T03:01:00.667Z,11.35
2016-05-07T03:02:00.638Z,11.44
2016-05-07T03:03:00.500Z,11.32
2016-05-07T03:04:00.659Z,11.33
2016-05-07T03:05:00.647Z,11.4
2016-05-07T03:06:00.664Z,11.36
2016-05-07T03:07:00.683Z,11.33
2016-05-07T03:08:00.654Z,11.35
2016-05-07T03:09:00.516Z,11.29
2016-05-07T03:10:00.535Z,11.29
2016-05-07T03:11:00.663Z,11.29
2016-05-07T03:12:00.336Z,11.3
2016-05-07T03:13:00.480Z,11.25
2016-05-07T03:14:00.638Z,11.26
2016-05-07T03:15:00.502Z,11.22
2016-05-07T03:16:00.644Z,11.19
2016-05-07T03:17:00.632Z,11.11
2016-05-07T03:18:00.634Z,11.14
2016-05-07T03:19:00.652Z,11.17
2016-05-07T03:20:00.623Z,11.1
2016-05-07T03:21:00.471Z,11.19
2016-05-07T03:22:00.645Z,11.1
2016-05-07T03:23:00.632Z,11.05
2016-05-07T03:24:00.650Z,11.12
2016-05-07T03:25:00.638Z,11.07
2016-05-07T03:26:00.640Z,11.23
2016-05-07T03:27:00.971Z,11.12
2016-05-07T03:28:00.645Z,11.15
2016-05-07T03:29:00.648Z,11.11
2016-05-07T03:30:00.666Z,11.05
2016-05-07T03:31:00.623Z,11.08
2016-05-07T03:32:00.625Z,11.05
2016-05-07T03:33:00.628Z,11.05
2016-05-07T03:34:00.474Z,11.08
2016-05-07T03:35:00.478Z,11.05
2016-05-07T03:36:00.480Z,11.1
2016-05-07T03:37:00.467Z,11.02
2016-05-07T03:38:00.469Z,11.11
2016-05-07T03:39:00.472Z,11.07
2016-05-07T03:40:00.615Z,11.12
2016-05-07T03:41:00.619Z,11.12
2016-05-07T03:42:00.621Z,11.1
2016-05-07T03:43:00.607Z,11.12
2016-05-07T03:44:00.610Z,11.14
2016-05-07T03:45:00.472Z,11.15
2016-05-07T03:46:00.616Z,11.1
2016-05-07T03:47:00.635Z,11.14
2016-05-07T03:48:00.652Z,11.08
2016-05-07T03:49:00.624Z,11.05
2016-05-07T03:50:00.611Z,11.04
2016-05-07T03:51:00.629Z,11.11
2016-05-07T03:52:00.616Z,11.04
2016-05-07T03:53:00.603Z,11.08
2016-05-07T03:54:00.606Z,11.12
2016-05-07T03:55:00.624Z,11.19
2016-05-07T03:56:00.454Z,11.19
2016-05-07T03:57:00.615Z,11.14
2016-05-07T03:58:00.445Z,11.1
2016-05-07T03:59:00.604Z,11.11
2016-05-07T04:00:00.606Z,11.22
2016-05-07T04:01:00.453Z,11.25
2016-05-07T04:02:00.596Z,11.19
2016-05-07T04:03:00.614Z,11.18
2016-05-07T04:04:00.617Z,11.27
2016-05-07T04:05:00.604Z,11.27
2016-05-07T04:06:00.607Z,11.23
2016-05-07T04:07:00.609Z,11.25
2016-05-07T04:08:00.612Z,11.23
2016-05-07T04:09:00.600Z,11.25
2016-05-07T04:10:00.602Z,11.32
2016-05-07T04:11:00.620Z,11.33
2016-05-07T04:12:00.452Z,11.33
2016-05-07T04:13:00.610Z,11.33
2016-05-07T04:14:00.597Z,11.37
2016-05-07T04:15:00.491Z,11.36
2016-05-07T04:16:00.602Z,11.41
2016-05-07T04:17:00.449Z,11.3
2016-05-07T04:18:00.608Z,11.33
2016-05-07T04:19:00.611Z,11.44
2016-05-07T04:20:00.598Z,11.36
2016-05-07T04:21:00.616Z,11.35
2016-05-07T04:22:00.603Z,11.43
2016-05-07T04:23:00.606Z,11.41
2016-05-07T04:24:00.593Z,11.59
2016-05-07T04:25:00.612Z,11.73
2016-05-07T04:26:00.614Z,11.88
2016-05-07T04:27:00.632Z,12.09
2016-05-07T04:28:00.604Z,12.18
2016-05-07T04:29:00.465Z,12.29
2016-05-07T04:30:00.593Z,12.36
2016-05-07T04:31:00.596Z,12.53
2016-05-07T04:32:00.614Z,12.7
2016-05-07T04:33:00.617Z,12.85
2016-05-07T04:34:00.589Z,13.08
2016-05-07T04:35:00.606Z,13.15
2016-05-07T04:36:00.610Z,13.41
2016-05-07T04:37:00.597Z,13.59
2016-05-07T04:38:00.599Z,13.87
2016-05-07T04:39:00.618Z,13.95
2016-05-07T04:40:00.636Z,14.18
2016-05-07T04:41:00.622Z,14.37
2016-05-07T04:42:02.469Z,14.51
2016-05-07T04:43:00.629Z,14.54
2016-05-07T04:44:00.631Z,14.65
2016-05-07T04:45:00.633Z,14.92
2016-05-07T04:46:00.621Z,14.99
2016-05-07T04:47:00.624Z,15.03
2016-05-07T04:48:00.611Z,15.18
2016-05-07T04:49:00.644Z,15.33
2016-05-07T04:50:00.632Z,15.36
2016-05-07T04:51:00.650Z,15.49
2016-05-07T04:52:00.637Z,15.61
2016-05-07T04:53:00.640Z,15.8
2016-05-07T04:54:00.626Z,15.97
2016-05-07T04:55:00.645Z,16.13
2016-05-07T04:56:00.663Z,16.23
2016-05-07T04:57:01.963Z,16.38
2016-05-07T04:58:00.668Z,16.41
2016-05-07T04:59:00.656Z,16.47
2016-05-07T05:00:00.674Z,16.64
2016-05-07T05:01:00.662Z,16.53
2016-05-07T05:02:00.695Z,16.68
2016-05-07T05:03:00.510Z,16.84
2016-05-07T05:04:00.684Z,16.96
2016-05-07T05:05:00.704Z,17.05
2016-05-07T05:06:00.706Z,17.19
2016-05-07T05:07:00.552Z,17.23
2016-05-07T05:08:00.711Z,17.3
2016-05-07T05:09:00.714Z,17.38
2016-05-07T05:10:00.717Z,17.3
2016-05-07T05:11:00.720Z,17.3
2016-05-07T05:12:00.613Z,17.45
2016-05-07T05:13:00.569Z,17.23
2016-05-07T05:14:00.586Z,16.9
2016-05-07T05:15:00.589Z,16.69
2016-05-07T05:16:00.592Z,16.32
2016-05-07T05:17:00.580Z,16.04
2016-05-07T05:18:00.597Z,15.73
2016-05-07T05:19:00.757Z,15.42
2016-05-07T05:20:00.619Z,15.29
2016-05-07T05:21:00.777Z,15.04
2016-05-07T05:22:00.781Z,15
2016-05-07T05:23:00.783Z,14.79
2016-05-07T05:24:00.770Z,14.65
2016-05-07T05:25:00.773Z,14.54
2016-05-07T05:26:00.791Z,14.44
2016-05-07T05:27:02.418Z,14.37
2016-05-07T05:28:00.812Z,14.37
2016-05-07T05:29:00.784Z,14.22
2016-05-07T05:30:00.833Z,14.32
2016-05-07T05:31:00.820Z,14.33
2016-05-07T05:32:00.651Z,14.25
2016-05-07T05:33:00.810Z,14.37
2016-05-07T05:34:00.812Z,14.66
2016-05-07T05:35:00.659Z,14.96
2016-05-07T05:36:00.818Z,15.35
2016-05-07T05:37:00.836Z,15.65
2016-05-07T05:38:00.808Z,16
2016-05-07T05:39:00.826Z,16.31
2016-05-07T05:40:00.844Z,16.68
2016-05-07T05:41:00.832Z,16.76
2016-05-07T05:42:02.506Z,16.96
2016-05-07T05:43:00.852Z,16.87
2016-05-07T05:44:00.731Z,16.81
2016-05-07T05:45:00.873Z,16.68
2016-05-07T05:46:00.845Z,16.56
2016-05-07T05:47:00.863Z,16.28
2016-05-07T05:48:00.881Z,16.16
2016-05-07T05:49:00.869Z,16.09
2016-05-07T05:50:00.871Z,16.04
2016-05-07T05:51:00.733Z,16.04
2016-05-07T05:52:00.877Z,16.32
2016-05-07T05:53:00.895Z,16.66
2016-05-07T05:54:00.897Z,16.97
2016-05-07T05:55:00.900Z,17.39
2016-05-07T05:56:00.903Z,17.83
2016-05-07T05:57:00.734Z,18.26
2016-05-07T05:58:00.908Z,18.75
2016-05-07T05:59:00.755Z,19.15
2016-05-07T06:00:00.758Z,19.49
2016-05-07T06:01:00.932Z,19.85
2016-05-07T06:02:00.935Z,20.02
2016-05-07T06:03:00.937Z,20.28
2016-05-07T06:04:00.784Z,20.55
2016-05-07T06:05:00.943Z,20.8
2016-05-07T06:06:00.946Z,20.96
2016-05-07T06:07:00.948Z,21.18
2016-05-07T06:08:00.951Z,21.2
2016-05-07T06:09:00.985Z,21.27
2016-05-07T06:10:01.004Z,21.52
2016-05-07T06:11:00.834Z,21.91
2016-05-07T06:12:01.008Z,22.33
2016-05-07T06:13:00.839Z,22.59
2016-05-07T06:14:01.014Z,22.48
2016-05-07T06:15:01.033Z,22.3
2016-05-07T06:16:01.036Z,22.26
2016-05-07T06:17:01.022Z,22.18
2016-05-07T06:18:00.900Z,22.23
2016-05-07T06:19:01.059Z,22.26
2016-05-07T06:20:01.062Z,22.48
2016-05-07T06:21:01.080Z,22.55
2016-05-07T06:22:01.395Z,22.65
2016-05-07T06:23:01.085Z,22.62
2016-05-07T06:24:03.494Z,22.59
2016-05-07T06:25:01.106Z,22.62
2016-05-07T06:26:01.124Z,22.54
2016-05-07T06:27:01.424Z,22.14
2016-05-07T06:28:00.989Z,22.15
2016-05-07T06:29:01.148Z,22.25
2016-05-07T06:30:01.166Z,22.32
2016-05-07T06:31:01.168Z,22.33
2016-05-07T06:32:01.187Z,22.33
2016-05-07T06:33:01.191Z,22.48
2016-05-07T06:34:01.177Z,22.66
2016-05-07T06:35:01.195Z,22.84
2016-05-07T06:36:01.199Z,22.96
2016-05-07T06:37:01.217Z,23.27
2016-05-07T06:38:01.063Z,23.43
2016-05-07T06:39:01.237Z,23.37
2016-05-07T06:40:01.225Z,23.4
2016-05-07T06:41:01.228Z,23.46
2016-05-07T06:42:01.261Z,23.58
2016-05-07T06:43:01.295Z,23.63
2016-05-07T06:44:01.110Z,23.58
2016-05-07T06:45:01.144Z,23.58
2016-05-07T06:46:01.319Z,23.78
2016-05-07T06:47:01.322Z,23.91
2016-05-07T06:48:01.309Z,24.06
2016-05-07T06:49:01.342Z,24.1
2016-05-07T06:50:01.345Z,23.98
2016-05-07T06:51:01.333Z,24.03
2016-05-07T06:52:01.350Z,24.26
2016-05-07T06:53:01.369Z,24.33
2016-05-07T06:54:01.388Z,24.33
2016-05-07T06:55:01.390Z,24.54
2016-05-07T06:56:01.393Z,24.54
2016-05-07T06:57:01.395Z,24.4
2016-05-07T06:58:01.414Z,24.39
2016-05-07T06:59:01.401Z,24.16
2016-05-07T07:00:01.449Z,24.05
2016-05-07T07:01:01.421Z,24.08
2016-05-07T07:02:01.455Z,24.16
2016-05-07T07:03:01.458Z,24.26
2016-05-07T07:04:01.477Z,24.57
2016-05-07T07:05:01.479Z,24.81
2016-05-07T07:06:01.513Z,24.85
2016-05-07T07:07:01.484Z,24.99
2016-05-07T07:08:01.379Z,24.96
2016-05-07T07:09:01.381Z,25.06
2016-05-07T07:10:01.367Z,25.03
2016-05-07T07:11:01.402Z,24.7
2016-05-07T07:12:01.561Z,24.33
2016-05-07T07:13:01.564Z,24.1
2016-05-07T07:14:01.581Z,23.61
2016-05-07T07:15:01.584Z,23.24
2016-05-07T07:16:01.571Z,22.88
2016-05-07T07:17:01.450Z,22.83
2016-05-07T07:18:01.656Z,22.8
2016-05-07T07:19:01.470Z,23.03
2016-05-07T07:20:01.644Z,23.23
2016-05-07T07:21:01.647Z,23.32
2016-05-07T07:22:01.681Z,23.2
2016-05-07T07:23:01.653Z,23.08
2016-05-07T07:24:01.515Z,23.24
2016-05-07T07:25:01.674Z,23.43
2016-05-07T07:26:01.536Z,23.66
2016-05-07T07:27:01.710Z,23.93
2016-05-07T07:28:01.744Z,24.2
2016-05-07T07:29:01.715Z,24.42
2016-05-07T07:30:01.563Z,24.32
2016-05-07T07:31:01.722Z,24.43
2016-05-07T07:32:01.740Z,24.84
2016-05-07T07:33:01.601Z,24.95
2016-05-07T07:34:01.791Z,25.21
2016-05-07T07:35:01.763Z,25.17
2016-05-07T07:36:01.797Z,25.23
2016-05-07T07:37:01.800Z,25.44
2016-05-07T07:38:01.490Z,25.77
2016-05-07T07:39:01.665Z,25.69
2016-05-07T07:40:01.823Z,25.6
2016-05-07T07:41:01.826Z,25.65
2016-05-07T07:42:01.735Z,25.72
2016-05-07T07:43:01.879Z,25.72
2016-05-07T07:44:01.725Z,25.65
2016-05-07T07:45:01.868Z,25.69
2016-05-07T07:46:01.730Z,25.66
2016-05-07T07:47:01.733Z,25.43
2016-05-07T07:48:01.908Z,25.11
2016-05-07T07:49:01.911Z,24.5
2016-05-07T07:50:01.913Z,23.87
2016-05-07T07:51:01.931Z,23.69
2016-05-07T07:52:01.933Z,23.8
2016-05-07T07:53:01.812Z,23.96
2016-05-07T07:54:01.955Z,24.05
2016-05-07T07:55:01.973Z,24.43
2016-05-07T07:56:01.992Z,24.88
2016-05-07T07:57:01.994Z,25.25
2016-05-07T07:58:01.981Z,25.65
2016-05-07T07:59:01.999Z,26.15
2016-05-07T08:00:02.018Z,26.63
2016-05-07T08:01:02.052Z,26.85
2016-05-07T08:02:02.024Z,27.02
2016-05-07T08:03:02.041Z,27.08
2016-05-07T08:04:02.060Z,27.32
2016-05-07T08:05:02.062Z,27.32
2016-05-07T08:06:02.082Z,27.32
2016-05-07T08:07:02.099Z,27.21
2016-05-07T08:08:02.087Z,27.26
2016-05-07T08:09:02.120Z,27.35
2016-05-07T08:10:02.123Z,27.12
2016-05-07T08:11:02.141Z,27.07
2016-05-07T08:12:02.143Z,26.88
2016-05-07T08:13:02.146Z,27.11
2016-05-07T08:14:02.149Z,27.12
2016-05-07T08:15:02.058Z,27.21
2016-05-07T08:16:02.202Z,27.39
2016-05-07T08:17:02.173Z,27.54
2016-05-07T08:18:02.206Z,27.55
2016-05-07T08:19:02.225Z,27.4
2016-05-07T08:20:01.915Z,27.4
2016-05-07T08:21:02.247Z,27.48
2016-05-07T08:22:02.250Z,27.6
2016-05-07T08:23:02.283Z,27.67
2016-05-07T08:24:02.129Z,27.33
2016-05-07T08:25:02.272Z,27.1
2016-05-07T08:26:02.307Z,26.97
2016-05-07T08:27:02.309Z,27.08
2016-05-07T08:28:02.311Z,27.27
2016-05-07T08:29:02.319Z,27.7
2016-05-07T08:30:02.364Z,27.93
2016-05-07T08:31:02.443Z,28.04
2016-05-07T08:32:02.488Z,28.02
2016-05-07T08:33:02.549Z,28
2016-05-07T08:34:02.607Z,28.02
2016-05-07T08:35:02.625Z,27.89
2016-05-07T08:36:02.488Z,27.82
2016-05-07T08:37:02.678Z,28.05
2016-05-07T08:38:02.695Z,28.32
2016-05-07T08:39:02.712Z,28.29
2016-05-07T08:40:02.736Z,27.87
2016-05-07T08:41:02.760Z,27.49
2016-05-07T08:42:02.769Z,27.03
2016-05-07T08:43:02.792Z,26.58
2016-05-07T08:44:02.644Z,26.07
2016-05-07T08:45:02.837Z,25.68
2016-05-07T08:46:02.842Z,25.13
2016-05-07T08:47:02.705Z,24.55
2016-05-07T08:48:02.850Z,24.16
2016-05-07T08:49:02.903Z,23.8
2016-05-07T08:50:02.890Z,23.46
2016-05-07T08:51:02.893Z,23.31
2016-05-07T08:52:02.913Z,23.15
2016-05-07T08:53:02.931Z,22.98
2016-05-07T08:54:02.934Z,22.8
2016-05-07T08:55:02.984Z,22.7
2016-05-07T08:56:02.972Z,22.68
2016-05-07T08:57:02.975Z,22.51
2016-05-07T08:58:02.978Z,22.43
2016-05-07T08:59:02.997Z,22.38
2016-05-07T09:00:02.827Z,22.13
2016-05-07T09:01:02.986Z,21.93
2016-05-07T09:02:04.208Z,21.82
2016-05-07T09:03:03.023Z,21.75
2016-05-07T09:04:02.886Z,21.77
2016-05-07T09:05:03.029Z,21.77
2016-05-07T09:06:03.032Z,21.92
2016-05-07T09:07:03.034Z,21.99
2016-05-07T09:08:03.052Z,22.02
2016-05-07T09:09:03.071Z,22.02
2016-05-07T09:10:03.058Z,21.99
2016-05-07T09:11:03.076Z,21.91
2016-05-07T09:12:03.751Z,21.8
2016-05-07T09:13:03.097Z,21.82
2016-05-07T09:14:03.101Z,21.79
2016-05-07T09:15:03.118Z,21.95
2016-05-07T09:16:03.121Z,21.98
2016-05-07T09:17:03.139Z,22.04
2016-05-07T09:18:03.157Z,22.1
2016-05-07T09:19:03.129Z,22.22
2016-05-07T09:20:03.148Z,22.26
2016-05-07T09:21:03.150Z,22.33
2016-05-07T09:22:03.167Z,22.53
2016-05-07T09:23:03.218Z,22.57
2016-05-07T09:24:03.189Z,22.63
2016-05-07T09:25:03.192Z,22.63
2016-05-07T09:26:03.195Z,22.63
2016-05-07T09:27:03.353Z,22.73
2016-05-07T09:28:03.481Z,22.83
2016-05-07T09:29:03.203Z,22.8
2016-05-07T09:30:03.221Z,22.8
2016-05-07T09:31:03.255Z,22.85
2016-05-07T09:32:03.257Z,22.93
2016-05-07T09:33:03.229Z,22.85
2016-05-07T09:34:03.263Z,22.87
2016-05-07T09:35:03.250Z,22.76
2016-05-07T09:36:03.269Z,22.76
2016-05-07T09:37:03.255Z,22.83
2016-05-07T09:38:03.118Z,22.81
2016-05-07T09:39:03.292Z,22.84
2016-05-07T09:40:03.295Z,22.8
2016-05-07T09:41:03.141Z,22.62
2016-05-07T09:42:03.754Z,22.44
2016-05-07T09:43:03.334Z,22.32
2016-05-07T09:44:03.165Z,22.39
2016-05-07T09:45:03.324Z,22.47
2016-05-07T09:46:03.343Z,22.45
2016-05-07T09:47:03.173Z,22.48
2016-05-07T09:48:03.332Z,22.69
2016-05-07T09:49:03.365Z,22.75
2016-05-07T09:50:03.337Z,22.78
2016-05-07T09:51:03.387Z,22.87
2016-05-07T09:52:03.374Z,22.83
2016-05-07T09:53:03.361Z,22.78
2016-05-07T09:54:03.379Z,22.81
2016-05-07T09:55:03.381Z,22.72
2016-05-07T09:56:03.385Z,22.85
2016-05-07T09:57:03.403Z,22.91
2016-05-07T09:58:03.640Z,22.88
2016-05-07T09:59:03.408Z,22.8
2016-05-07T10:00:03.255Z,22.94
2016-05-07T10:01:03.430Z,22.9
2016-05-07T10:02:03.276Z,22.76
2016-05-07T10:03:03.278Z,22.68
2016-05-07T10:04:03.453Z,22.62
2016-05-07T10:05:03.456Z,22.66
2016-05-07T10:06:03.458Z,22.73
2016-05-07T10:07:03.461Z,22.75
2016-05-07T10:08:03.480Z,22.78
2016-05-07T10:09:03.310Z,22.83
2016-05-07T10:10:03.485Z,22.8
2016-05-07T10:11:03.488Z,22.76
2016-05-07T10:12:03.506Z,22.81
2016-05-07T10:13:03.509Z,22.76
2016-05-07T10:14:03.371Z,22.63
2016-05-07T10:15:03.373Z,22.69
2016-05-07T10:16:03.532Z,22.72
2016-05-07T10:17:03.379Z,22.87
2016-05-07T10:18:03.398Z,22.99
2016-05-07T10:19:03.384Z,23.15
2016-05-07T10:20:03.543Z,23.27
2016-05-07T10:21:03.562Z,23.28
2016-05-07T10:22:03.408Z,23.12
2016-05-07T10:23:03.425Z,23.09
2016-05-07T10:24:03.428Z,22.93
2016-05-07T10:25:03.432Z,23
2016-05-07T10:26:03.606Z,22.88
2016-05-07T10:27:03.436Z,22.83
2016-05-07T10:28:03.607Z,22.83
2016-05-07T10:29:03.469Z,22.99
2016-05-07T10:30:03.611Z,23.12
2016-05-07T10:31:03.475Z,23.09
2016-05-07T10:32:03.633Z,23.15
2016-05-07T10:33:03.636Z,23.09
2016-05-07T10:34:03.638Z,23.17
2016-05-07T10:35:03.517Z,23.2
2016-05-07T10:36:03.659Z,23.27
2016-05-07T10:37:03.661Z,23.39
2016-05-07T10:38:03.337Z,23.44
2016-05-07T10:39:03.683Z,23.54
2016-05-07T10:40:03.685Z,23.59
2016-05-07T10:41:03.704Z,23.62
2016-05-07T10:42:03.691Z,23.59
2016-05-07T10:43:03.538Z,23.43
2016-05-07T10:44:03.540Z,23.43
2016-05-07T10:45:03.699Z,23.41
2016-05-07T10:46:03.718Z,23.36
2016-05-07T10:47:03.720Z,23.36
2016-05-07T10:48:03.723Z,23.28
2016-05-07T10:49:03.741Z,23.23
2016-05-07T10:50:03.744Z,23.21
2016-05-07T10:51:03.746Z,23.17
2016-05-07T10:52:03.765Z,23.15
2016-05-07T10:53:03.768Z,23.2
2016-05-07T10:54:03.614Z,23.18
2016-05-07T10:55:03.789Z,23.27
2016-05-07T10:56:03.634Z,23.34
2016-05-07T10:57:03.795Z,23.39
2016-05-07T10:58:03.625Z,23.39
2016-05-07T10:59:03.799Z,23.4
2016-05-07T11:00:03.834Z,23.44
2016-05-07T11:01:03.820Z,23.39
2016-05-07T11:02:03.822Z,23.54
2016-05-07T11:03:03.825Z,23.65
2016-05-07T11:04:03.845Z,23.73
2016-05-07T11:05:03.862Z,23.8
2016-05-07T11:06:03.849Z,23.78
2016-05-07T11:07:03.853Z,23.81
2016-05-07T11:08:03.714Z,23.68
2016-05-07T11:09:03.888Z,23.73
2016-05-07T11:10:03.719Z,23.71
2016-05-07T11:11:03.722Z,23.62
2016-05-07T11:12:03.913Z,23.73
2016-05-07T11:13:04.165Z,23.66
2016-05-07T11:14:03.902Z,23.62
2016-05-07T11:15:03.749Z,23.68
2016-05-07T11:16:03.907Z,23.76
2016-05-07T11:17:03.769Z,23.65
2016-05-07T11:18:03.913Z,23.69
2016-05-07T11:19:03.963Z,23.76
2016-05-07T11:20:03.965Z,23.95
2016-05-07T11:21:03.952Z,24.02
2016-05-07T11:22:03.814Z,24.01
2016-05-07T11:23:03.957Z,24.18
2016-05-07T11:24:03.960Z,24.17
2016-05-07T11:25:03.823Z,24.23
2016-05-07T11:26:03.997Z,24.18
2016-05-07T11:27:04.015Z,24.17
2016-05-07T11:28:03.862Z,24.21
2016-05-07T11:29:03.833Z,24.29
2016-05-07T11:30:03.867Z,24.26
2016-05-07T11:31:04.104Z,24.39
2016-05-07T11:32:04.091Z,24.3
2016-05-07T11:33:04.188Z,24.3
2016-05-07T11:34:04.050Z,24.45
2016-05-07T11:35:04.053Z,24.5
2016-05-07T11:36:04.055Z,24.65
2016-05-07T11:37:04.057Z,24.57
2016-05-07T11:38:04.061Z,24.54
2016-05-07T11:39:04.063Z,24.5
2016-05-07T11:40:04.081Z,24.39
2016-05-07T11:41:04.099Z,24.32
2016-05-07T11:42:04.275Z,24.4
2016-05-07T11:43:04.105Z,24.66
2016-05-07T11:44:04.107Z,24.69
2016-05-07T11:45:04.111Z,24.78
2016-05-07T11:46:04.004Z,24.86
2016-05-07T11:47:04.132Z,25.06
2016-05-07T11:48:04.134Z,24.99
2016-05-07T11:49:04.168Z,25.13
2016-05-07T11:50:04.155Z,25.08
2016-05-07T11:51:04.158Z,25.16
2016-05-07T11:52:04.020Z,25.28
2016-05-07T11:53:04.023Z,25.48
2016-05-07T11:54:04.026Z,25.51
2016-05-07T11:55:04.200Z,25.54
2016-05-07T11:56:04.187Z,25.59
2016-05-07T11:57:04.064Z,25.65
2016-05-07T11:58:04.068Z,25.69
2016-05-07T11:59:04.242Z,25.8
2016-05-07T12:00:04.089Z,25.87
2016-05-07T12:01:04.231Z,25.81
2016-05-07T12:02:04.234Z,25.91
2016-05-07T12:03:04.081Z,25.93
2016-05-07T12:04:03.958Z,25.93
2016-05-07T12:05:04.273Z,26.06
2016-05-07T12:06:04.292Z,26.02
2016-05-07T12:07:04.311Z,25.91
2016-05-07T12:08:04.141Z,25.96
2016-05-07T12:09:04.284Z,25.9
2016-05-07T12:10:04.303Z,25.85
2016-05-07T12:11:04.321Z,25.91
2016-05-07T12:12:04.339Z,25.85
2016-05-07T12:13:04.030Z,25.81
2016-05-07T12:14:04.329Z,25.72
2016-05-07T12:15:04.332Z,25.73
2016-05-07T12:16:04.210Z,25.7
2016-05-07T12:17:04.368Z,25.65
2016-05-07T12:18:04.230Z,25.65
2016-05-07T12:19:04.374Z,25.68
2016-05-07T12:20:04.377Z,25.66
2016-05-07T12:21:04.270Z,25.62
2016-05-07T12:22:04.491Z,25.63
2016-05-07T12:23:04.494Z,25.69
2016-05-07T12:24:04.403Z,25.66
2016-05-07T12:25:04.421Z,25.63
2016-05-07T12:26:04.439Z,25.5
2016-05-07T12:27:04.427Z,25.53
2016-05-07T12:28:04.460Z,25.58
2016-05-07T12:29:04.307Z,25.65
2016-05-07T12:30:04.465Z,25.66
2016-05-07T12:31:04.312Z,25.63
2016-05-07T12:32:04.487Z,25.66
2016-05-07T12:33:04.473Z,25.69
2016-05-07T12:34:04.352Z,25.72
2016-05-07T12:35:04.494Z,25.84
2016-05-07T12:36:04.498Z,25.87
2016-05-07T12:37:04.531Z,25.72
2016-05-07T12:38:04.534Z,25.69
2016-05-07T12:39:04.380Z,25.77
2016-05-07T12:40:04.243Z,25.69
2016-05-07T12:41:04.542Z,25.7
2016-05-07T12:42:04.827Z,25.8
2016-05-07T12:43:04.422Z,25.8
2016-05-07T12:44:04.285Z,25.84
2016-05-07T12:45:04.600Z,25.95
2016-05-07T12:46:04.619Z,26.1
2016-05-07T12:47:04.621Z,26.19
2016-05-07T12:48:04.639Z,26.23
2016-05-07T12:49:04.627Z,26.38
2016-05-07T12:50:04.473Z,26.31
2016-05-07T12:51:04.679Z,26.34
2016-05-07T12:52:04.665Z,26.31
2016-05-07T12:53:04.668Z,26.22
2016-05-07T12:54:04.654Z,26.19
2016-05-07T12:55:04.674Z,26.29
2016-05-07T12:56:04.379Z,26.22